Time;durP1;ratioP1;P1;durP2;ratioP2;P2;SDS_P1;SDS_P2;PMS_P1;PMS_P2;Temp;Humidity;BMP_temperature;BMP_pressure;BME280_temperature;BME280_humidity;BME280_pressure;Samples;Min_cycle;Max_cycle;Signal;HPM_P1;HPM_P2
2023/02/01 00:01:32;;;;;;;5.40;2.35;;;;;;;4.51;88.83;100551.81;5100705;28;20028;-76
2023/02/01 00:03:58;;;;;;;7.00;1.98;;;;;;;4.53;87.59;100551.72;5097989;28;20020;-75
2023/02/01 00:06:23;;;;;;;5.00;1.67;;;;;;;4.57;88.16;100569.19;5104113;27;20083;-77
2023/02/01 00:08:53;;;;;;;6.15;2.25;;;;;;;4.61;87.57;100552.13;5101183;28;20051;-77
2023/02/01 00:11:19;;;;;;;3.05;1.65;;;;;;;4.60;87.66;100572.53;5096749;27;20028;-77
2023/02/01 00:13:45;;;;;;;7.40;2.17;;;;;;;4.65;87.76;100574.91;5081218;27;20046;-77
2023/02/01 00:16:16;;;;;;;6.63;2.13;;;;;;;4.69;86.64;100572.00;5097853;27;20430;-77
2023/02/01 00:18:41;;;;;;;6.13;2.67;;;;;;;4.60;87.05;100566.34;5086904;28;20053;-76
2023/02/01 00:21:07;;;;;;;9.77;2.83;;;;;;;4.47;87.20;100538.81;5093237;28;20121;-76
2023/02/01 00:23:34;;;;;;;6.65;2.55;;;;;;;4.48;87.45;100545.81;5102994;28;20032;-76
2023/02/01 00:26:04;;;;;;;6.57;2.50;;;;;;;4.43;87.89;100535.50;5095409;27;20514;-77
2023/02/01 00:28:30;;;;;;;7.03;2.25;;;;;;;4.46;87.56;100539.78;5085165;28;20031;-77
2023/02/01 00:31:00;;;;;;;6.53;2.42;;;;;;;4.52;87.30;100542.91;5079496;28;21656;-77
2023/02/01 00:33:27;;;;;;;4.38;2.42;;;;;;;4.47;87.50;100545.00;5106632;27;20115;-75
2023/02/01 00:35:57;;;;;;;8.50;2.97;;;;;;;4.44;87.62;100533.69;5096545;28;20390;-76
2023/02/01 00:38:23;;;;;;;4.97;2.55;;;;;;;4.47;88.11;100530.84;5102857;28;20054;-76
2023/02/01 00:40:48;;;;;;;9.25;2.58;;;;;;;4.49;87.62;100531.63;5104759;28;20047;-76
2023/02/01 00:43:13;;;;;;;8.85;2.80;;;;;;;4.46;87.76;100529.16;5098785;28;20379;-76
2023/02/01 00:45:39;;;;;;;9.90;2.45;;;;;;;4.51;86.42;100527.06;5087749;28;20028;-76
2023/02/01 00:48:05;;;;;;;6.20;2.65;;;;;;;4.60;84.85;100534.47;5090269;28;20032;-76
2023/02/01 00:50:30;;;;;;;10.98;2.83;;;;;;;4.72;82.83;100537.28;5099074;28;20051;-76
2023/02/01 00:52:55;;;;;;;5.18;2.67;;;;;;;4.70;82.83;100541.81;5103335;27;20042;-76
2023/02/01 00:55:21;;;;;;;5.45;2.60;;;;;;;4.82;80.15;100534.91;5101889;28;20034;-76
2023/02/01 00:57:46;;;;;;;12.43;3.45;;;;;;;4.98;78.18;100521.53;5101211;28;20098;-76
2023/02/01 01:00:12;;;;;;;6.10;2.78;;;;;;;5.03;78.46;100533.56;5104868;27;20477;-76
2023/02/01 01:02:38;;;;;;;9.57;3.42;;;;;;;4.97;78.71;100536.63;5098248;28;20027;-76
2023/02/01 01:05:03;;;;;;;8.57;2.80;;;;;;;4.95;78.20;100527.03;5099001;27;20034;-76
2023/02/01 01:07:29;;;;;;;7.03;3.08;;;;;;;4.88;78.20;100523.03;5094057;27;20047;-75
2023/02/01 01:09:55;;;;;;;7.60;3.10;;;;;;;4.88;77.80;100523.03;5083071;28;20024;-76
2023/02/01 01:12:20;;;;;;;7.38;3.03;;;;;;;5.03;77.30;100544.19;5081328;28;20065;-75
2023/02/01 01:14:46;;;;;;;7.85;2.90;;;;;;;4.97;77.09;100533.13;5100045;28;20099;-75
2023/02/01 01:17:11;;;;;;;5.28;2.53;;;;;;;4.93;77.37;100518.31;5103788;28;20419;-76
2023/02/01 01:19:37;;;;;;;6.60;3.08;;;;;;;4.90;77.46;100502.56;5098635;28;20031;-76
2023/02/01 01:22:02;;;;;;;5.10;3.05;;;;;;;5.03;76.63;100504.34;5098452;27;20118;-75
2023/02/01 01:24:28;;;;;;;6.18;3.08;;;;;;;5.05;76.62;100491.81;5098342;27;20028;-76
2023/02/01 01:26:53;;;;;;;8.32;3.05;;;;;;;5.01;76.26;100487.66;5094083;27;20051;-76
2023/02/01 01:29:19;;;;;;;9.13;3.05;;;;;;;5.01;76.86;100486.78;5082974;28;20030;-76
2023/02/01 01:31:44;;;;;;;11.38;3.15;;;;;;;4.96;76.63;100483.56;5098912;27;20384;-76
2023/02/01 01:34:09;;;;;;;7.75;2.75;;;;;;;4.96;76.95;100484.41;5098226;27;20476;-77
2023/02/01 01:36:35;;;;;;;7.38;2.80;;;;;;;4.93;76.77;100475.78;5098592;28;20121;-76
2023/02/01 01:39:00;;;;;;;8.20;2.80;;;;;;;4.94;77.34;100486.31;5101828;28;20478;-76
2023/02/01 01:41:30;;;;;;;8.35;3.28;;;;;;;4.94;78.07;100477.50;5086290;28;20036;-76
2023/02/01 01:44:04;;;;;;;7.28;3.00;;;;;;;4.89;78.15;100461.81;5104928;28;20395;-76
2023/02/01 01:46:35;;;;;;;7.15;2.63;;;;;;;4.92;77.86;100455.47;5097441;27;20027;-76
2023/02/01 01:49:12;;;;;;;9.15;3.45;;;;;;;5.01;77.23;100484.13;5101610;28;20471;-76
2023/02/01 01:51:44;;;;;;;8.55;2.85;;;;;;;5.02;77.03;100473.41;5094983;28;20036;-74
2023/02/01 01:54:17;;;;;;;9.30;2.72;;;;;;;5.03;76.76;100471.59;5083182;28;20032;-75
2023/02/01 01:56:44;;;;;;;5.90;2.75;;;;;;;5.05;76.87;100469.69;5094924;28;20031;-75
2023/02/01 01:59:10;;;;;;;8.70;2.83;;;;;;;5.10;75.46;100449.88;5099589;27;20102;-74
2023/02/01 02:01:36;;;;;;;5.68;2.33;;;;;;;5.38;74.01;100454.28;5079662;28;20106;-75
2023/02/01 02:04:03;;;;;;;5.38;2.33;;;;;;;5.33;73.45;100449.25;5100354;27;20372;-75
2023/02/01 02:06:51;;;;;;;7.30;2.28;;;;;;;5.24;74.47;100441.84;5095382;28;20093;-75
2023/02/01 02:09:17;;;;;;;7.60;2.20;;;;;;;5.25;75.55;100445.38;5096704;28;20515;-75
2023/02/01 02:11:42;;;;;;;7.57;2.65;;;;;;;5.19;75.48;100429.81;5098848;28;20038;-76
2023/02/01 02:14:11;;;;;;;6.82;2.55;;;;;;;5.19;75.88;100432.47;5079154;28;20522;-75
2023/02/01 02:16:46;;;;;;;4.53;2.42;;;;;;;5.19;76.51;100427.16;5075562;28;20028;-75
2023/02/01 02:19:48;;;;;;;7.95;2.60;;;;;;;5.28;75.60;100423.88;5097164;28;20035;-76
2023/02/01 02:22:57;;;;;;;8.05;2.67;;;;;;;5.31;75.37;100429.88;5077653;28;20157;-75
2023/02/01 02:25:55;;;;;;;7.63;2.80;;;;;;;5.41;73.73;100438.09;5081346;28;20040;-76
2023/02/01 02:28:43;;;;;;;6.82;2.28;;;;;;;5.36;73.86;100433.09;5066850;28;20050;-76
2023/02/01 02:31:39;;;;;;;6.53;2.20;;;;;;;5.46;73.17;100434.19;5096898;28;20074;-76
2023/02/01 02:34:07;;;;;;;5.75;2.28;;;;;;;5.55;72.34;100432.75;5103228;28;20098;-76
2023/02/01 02:36:48;;;;;;;4.80;1.85;;;;;;;5.44;72.79;100429.91;5084004;28;20157;-75
2023/02/01 02:39:13;;;;;;;7.60;2.42;;;;;;;5.54;72.24;100433.69;5098292;28;20028;-75
2023/02/01 02:48:21;;;;;;;5.25;2.10;;;;;;;5.53;70.65;100414.22;5100385;28;20035;-75
2023/02/01 03:05:04;;;;;;;3.30;2.10;;;;;;;5.63;67.59;100409.13;5101774;28;20058;-75
2023/02/01 03:08:11;;;;;;;5.35;2.17;;;;;;;5.64;67.23;100414.38;5082735;28;20071;-75
2023/02/01 03:11:06;;;;;;;7.07;1.88;;;;;;;5.54;67.34;100399.97;5021109;28;20042;-76
2023/02/01 03:13:52;;;;;;;6.18;1.95;;;;;;;5.58;66.98;100405.94;5021801;28;20076;-74
2023/02/01 03:16:25;;;;;;;4.05;1.70;;;;;;;5.55;67.44;100409.63;5088934;28;20054;-75
2023/02/01 03:19:00;;;;;;;3.90;1.92;;;;;;;5.56;67.41;100407.84;5097595;28;20024;-75
2023/02/01 03:21:34;;;;;;;4.22;2.08;;;;;;;5.47;67.23;100403.13;5102362;28;20089;-74
2023/02/01 03:24:01;;;;;;;;;;;;;;;5.45;67.42;100411.19;5108386;27;20028;-76
2023/02/01 03:26:30;;;;;;;8.82;2.15;;;;;;;5.47;67.38;100403.97;5105456;28;19920;-76
2023/02/01 03:29:08;;;;;;;2.97;2.13;;;;;;;5.33;67.41;100396.06;5102312;28;20027;-75
2023/02/01 03:31:33;;;;;;;5.45;1.73;;;;;;;5.36;67.61;100409.16;5083200;28;20040;-75
2023/02/01 03:33:59;;;;;;;4.78;2.17;;;;;;;5.37;67.69;100418.84;5104857;28;20060;-75
2023/02/01 03:36:47;;;;;;;4.82;2.40;;;;;;;5.30;68.07;100417.53;5106521;27;20041;-75
2023/02/01 03:39:21;;;;;;;7.25;2.55;;;;;;;5.24;68.04;100407.28;5095959;28;20024;-75
2023/02/01 03:41:57;;;;;;;;;;;;;;;5.27;67.35;100420.38;5108019;28;20043;-75
2023/02/01 03:44:29;;;;;;;4.32;2.67;;;;;;;5.23;68.03;100426.00;5103702;28;19927;-76
2023/02/01 03:47:00;;;;;;;3.25;2.20;;;;;;;5.07;68.46;100419.97;5078548;28;20032;-69
2023/02/01 03:49:30;;;;;;;4.53;2.10;;;;;;;5.05;67.60;100401.44;5083726;28;20093;-68
2023/02/01 03:51:59;;;;;;;6.75;2.45;;;;;;;4.92;67.66;100394.34;5082386;28;20483;-67
2023/02/01 03:54:27;;;;;;;8.30;2.92;;;;;;;5.09;68.08;100431.34;5095195;28;20510;-68
2023/02/01 03:56:55;;;;;;;6.18;2.45;;;;;;;4.95;67.37;100402.13;5080359;28;20047;-68
2023/02/01 03:59:31;;;;;;;5.78;2.45;;;;;;;5.06;67.64;100435.03;5083866;28;20027;-67
2023/02/01 04:01:57;;;;;;;9.43;3.13;;;;;;;4.92;67.78;100435.06;5089972;28;20554;-69
2023/02/01 04:04:22;;;;;;;6.35;2.90;;;;;;;4.62;68.11;100386.53;5102955;28;20489;-70
2023/02/01 04:06:49;;;;;;;8.55;2.72;;;;;;;4.75;67.85;100417.50;5086786;28;20118;-69
2023/02/01 04:09:15;;;;;;;6.28;3.03;;;;;;;4.69;67.92;100419.72;5076795;28;20062;-68
2023/02/01 04:11:41;;;;;;;6.80;3.13;;;;;;;4.62;68.41;100423.69;5084700;28;20491;-68
2023/02/01 04:14:06;;;;;;;5.85;2.97;;;;;;;4.47;69.07;100406.91;5098544;28;20509;-70
2023/02/01 04:16:32;;;;;;;7.47;2.92;;;;;;;4.59;68.95;100445.13;5079620;28;20487;-69
2023/02/01 04:18:59;;;;;;;4.95;2.97;;;;;;;4.42;69.64;100432.03;5094825;27;20024;-69
2023/02/01 04:21:27;;;;;;;6.93;3.53;;;;;;;4.19;69.78;100384.78;5090753;28;20102;-69
2023/02/01 04:23:53;;;;;;;8.00;2.80;;;;;;;4.39;69.74;100443.69;5102044;28;20083;-69
2023/02/01 04:26:20;;;;;;;5.57;3.13;;;;;;;4.31;70.27;100434.47;5094182;27;20032;-68
2023/02/01 04:28:47;;;;;;;6.47;2.80;;;;;;;4.28;70.66;100446.13;5101239;28;20028;-75
2023/02/01 04:31:14;;;;;;;5.40;2.90;;;;;;;4.28;70.42;100437.31;5103382;28;20110;-75
2023/02/01 04:33:40;;;;;;;9.00;3.28;;;;;;;4.13;71.03;100431.13;5083401;28;20028;-75
2023/02/01 04:36:08;;;;;;;5.85;3.33;;;;;;;4.12;71.21;100433.88;5101580;27;20043;-75
2023/02/01 04:38:34;;;;;;;8.13;3.70;;;;;;;4.04;71.42;100434.34;5089753;28;20387;-74
2023/02/01 04:41:00;;;;;;;7.85;3.58;;;;;;;4.08;71.64;100442.97;5105733;28;20023;-75
2023/02/01 04:43:26;;;;;;;6.50;3.08;;;;;;;4.02;71.77;100438.00;5103836;28;20047;-75
2023/02/01 04:45:51;;;;;;;6.15;3.42;;;;;;;3.98;72.45;100440.00;5102501;27;20072;-75
2023/02/01 04:48:18;;;;;;;4.55;3.15;;;;;;;3.97;72.46;100446.25;5101296;27;20092;-75
2023/02/01 04:50:48;;;;;;;7.80;3.10;;;;;;;3.94;72.35;100448.25;5097447;28;20062;-75
2023/02/01 04:53:17;;;;;;;6.55;3.30;;;;;;;3.92;72.18;100450.13;5102581;28;20421;-75
2023/02/01 04:55:43;;;;;;;6.20;3.08;;;;;;;4.03;71.62;100453.84;5102799;27;20189;-75
2023/02/01 04:58:10;;;;;;;7.93;3.85;;;;;;;3.95;71.96;100457.91;5098767;28;20083;-75
2023/02/01 05:00:36;;;;;;;7.47;3.00;;;;;;;3.88;72.23;100456.56;5103328;28;20030;-75
2023/02/01 05:03:01;;;;;;;5.95;3.50;;;;;;;3.85;72.73;100456.72;5083685;28;20027;-75
2023/02/01 05:05:28;;;;;;;6.18;3.50;;;;;;;3.82;72.96;100454.25;5097224;28;20527;-76
2023/02/01 05:07:53;;;;;;;6.30;3.63;;;;;;;3.78;73.03;100450.06;5097255;28;20032;-75
2023/02/01 05:10:19;;;;;;;6.68;3.33;;;;;;;3.82;72.98;100462.22;5102873;28;20031;-76
2023/02/01 05:15:30;;;;;;;6.38;3.65;;;;;;;3.72;73.07;100463.69;5102321;28;20042;-75
2023/02/01 05:17:55;;;;;;;7.90;3.75;;;;;;;3.73;73.46;100468.03;5102628;28;20016;-75
2023/02/01 05:20:21;;;;;;;7.35;3.25;;;;;;;3.61;73.86;100456.34;5103380;28;20037;-75
2023/02/01 05:22:46;;;;;;;7.20;4.03;;;;;;;3.60;73.97;100470.53;5103349;28;20030;-75
2023/02/01 05:25:12;;;;;;;6.97;3.85;;;;;;;3.54;74.31;100460.28;5100187;28;20019;-75
2023/02/01 05:27:37;;;;;;;6.72;3.50;;;;;;;3.58;74.51;100471.59;5097693;28;20062;-75
2023/02/01 05:30:08;;;;;;;7.50;3.90;;;;;;;3.73;73.87;100473.34;5085535;28;20088;-76
2023/02/01 05:32:33;;;;;;;5.50;3.85;;;;;;;3.76;74.06;100473.16;5093583;27;20484;-74
2023/02/01 05:34:59;;;;;;;8.68;3.97;;;;;;;3.67;74.24;100479.00;5100762;28;20028;-73
2023/02/01 05:37:24;;;;;;;8.27;3.53;;;;;;;3.52;75.10;100474.59;5084118;28;20084;-75
2023/02/01 05:39:50;;;;;;;5.93;3.67;;;;;;;3.55;75.13;100480.53;5092717;27;20036;-74
2023/02/01 05:42:15;;;;;;;6.03;3.80;;;;;;;3.48;75.72;100473.88;5081570;28;20035;-74
2023/02/01 05:44:41;;;;;;;13.40;4.03;;;;;;;3.45;75.67;100474.06;5090648;28;20024;-75
2023/02/01 05:47:07;;;;;;;8.20;4.85;;;;;;;3.57;75.18;100478.69;5099187;28;20342;-75
2023/02/01 05:49:32;;;;;;;7.85;3.63;;;;;;;3.61;74.93;100493.47;5102482;28;20066;-74
2023/02/01 05:51:58;;;;;;;6.97;3.97;;;;;;;3.53;75.25;100486.88;5100215;27;20055;-75
2023/02/01 05:54:23;;;;;;;8.45;4.05;;;;;;;3.45;75.96;100489.13;5101517;28;20055;-74
2023/02/01 05:56:49;;;;;;;7.82;4.18;;;;;;;3.37;76.19;100478.09;5089944;28;20788;-74
2023/02/01 05:59:14;;;;;;;10.82;4.57;;;;;;;3.36;76.65;100479.91;5089140;27;20031;-76
2023/02/01 06:01:39;;;;;;;7.45;3.83;;;;;;;3.32;76.91;100478.34;5075163;28;20107;-74
2023/02/01 06:04:05;;;;;;;8.05;4.38;;;;;;;3.44;76.27;100476.78;5073189;28;20103;-75
2023/02/01 06:06:31;;;;;;;7.25;4.13;;;;;;;3.42;76.95;100486.66;5090724;28;20020;-74
2023/02/01 06:08:56;;;;;;;8.57;4.35;;;;;;;3.38;76.82;100487.72;5071621;28;20030;-75
2023/02/01 06:11:22;;;;;;;9.07;4.80;;;;;;;3.33;77.34;100487.16;5072036;28;20604;-73
2023/02/01 06:13:47;;;;;;;10.13;4.47;;;;;;;3.35;77.33;100493.25;5089555;28;20043;-74
2023/02/01 06:16:14;;;;;;;6.18;3.97;;;;;;;3.31;77.48;100496.97;5091394;28;20024;-74
2023/02/01 06:18:41;;;;;;;6.30;4.00;;;;;;;3.30;77.92;100508.53;5092909;28;20759;-74
2023/02/01 06:21:06;;;;;;;8.63;4.15;;;;;;;3.30;77.92;100498.78;5094900;28;20016;-76
2023/02/01 06:23:32;;;;;;;10.95;4.53;;;;;;;3.57;77.66;100509.63;5076795;28;20513;-74
2023/02/01 06:26:00;;;;;;;8.20;4.40;;;;;;;3.47;77.49;100484.56;5094037;28;20035;-74
2023/02/01 06:28:27;;;;;;;7.18;3.90;;;;;;;3.62;77.22;100492.53;5088077;28;20369;-74
2023/02/01 06:30:52;;;;;;;8.68;3.92;;;;;;;3.68;77.17;100501.94;5085381;28;20063;-76
2023/02/01 06:33:18;;;;;;;7.07;4.07;;;;;;;3.55;77.21;100488.50;5080081;28;20220;-74
2023/02/01 06:35:44;;;;;;;7.60;4.30;;;;;;;3.60;77.45;100493.53;5090676;28;20114;-74
2023/02/01 06:38:11;;;;;;;9.02;4.57;;;;;;;3.72;76.05;100488.41;5090709;28;20020;-75
2023/02/01 06:40:37;;;;;;;8.98;4.55;;;;;;;3.64;76.49;100492.47;5100084;28;20099;-74
2023/02/01 06:43:02;;;;;;;9.98;4.40;;;;;;;3.64;76.57;100495.09;5078125;28;20130;-74
2023/02/01 06:45:28;;;;;;;8.23;4.65;;;;;;;3.73;76.76;100502.50;5087688;28;20035;-74
2023/02/01 06:47:53;;;;;;;7.03;4.68;;;;;;;3.65;76.56;100496.81;5077854;28;20391;-76
2023/02/01 06:50:19;;;;;;;9.15;4.43;;;;;;;3.51;76.90;100480.84;5096258;28;20471;-75
2023/02/01 06:52:44;;;;;;;8.90;4.68;;;;;;;3.60;77.44;100498.84;5101705;28;20128;-74
2023/02/01 06:55:09;;;;;;;9.02;4.55;;;;;;;3.80;76.42;100501.22;5100684;28;20055;-74
2023/02/01 06:57:35;;;;;;;7.75;4.50;;;;;;;3.85;75.72;100500.03;5096851;28;20467;-75
2023/02/01 07:00:03;;;;;;;8.43;4.32;;;;;;;3.76;76.31;100516.47;5074992;28;20024;-75
2023/02/01 07:02:29;;;;;;;8.95;4.70;;;;;;;3.82;76.77;100516.13;5092239;28;20039;-75
2023/02/01 07:04:54;;;;;;;9.50;4.60;;;;;;;3.63;77.35;100510.16;5098066;28;20027;-75
2023/02/01 07:07:22;;;;;;;9.45;4.57;;;;;;;3.82;77.14;100517.91;5100563;28;20490;-75
2023/02/01 07:09:50;;;;;;;8.32;4.45;;;;;;;3.70;77.33;100511.50;5093746;28;20028;-75
2023/02/01 07:12:15;;;;;;;10.27;4.72;;;;;;;3.64;78.37;100524.28;5096348;28;20047;-75
2023/02/01 07:14:41;;;;;;;9.23;5.32;;;;;;;3.66;77.98;100525.91;5097169;28;20055;-74
2023/02/01 07:17:06;;;;;;;8.43;4.90;;;;;;;3.83;77.97;100527.56;5095791;28;20054;-74
2023/02/01 07:19:32;;;;;;;10.50;4.78;;;;;;;3.84;78.20;100539.91;5095702;28;20051;-74
2023/02/01 07:21:57;;;;;;;10.18;4.30;;;;;;;3.95;78.17;100533.06;5088950;28;20023;-75
2023/02/01 07:24:23;;;;;;;10.82;4.90;;;;;;;4.06;77.42;100529.75;5075889;28;20020;-74
2023/02/01 07:26:50;;;;;;;8.95;5.00;;;;;;;4.06;77.24;100527.09;5101427;28;20232;-74
2023/02/01 07:29:17;;;;;;;8.82;4.47;;;;;;;4.04;78.31;100529.88;5095448;28;20024;-74
2023/02/01 07:31:42;;;;;;;10.18;4.95;;;;;;;3.95;78.76;100533.06;5098039;28;20051;-74
2023/02/01 07:34:07;;;;;;;9.48;4.57;;;;;;;4.18;77.78;100529.06;5096690;28;20026;-75
2023/02/01 07:36:34;;;;;;;10.80;4.88;;;;;;;4.19;78.71;100539.59;5092163;28;20030;-75
2023/02/01 07:38:59;;;;;;;12.07;4.93;;;;;;;4.29;78.19;100527.47;5093423;28;20032;-74
2023/02/01 07:41:25;;;;;;;8.20;4.78;;;;;;;4.34;78.28;100538.69;5097084;28;20024;-74
2023/02/01 07:43:54;;;;;;;7.75;4.55;;;;;;;4.34;78.29;100536.03;5105513;28;20475;-75
2023/02/01 07:46:20;;;;;;;8.38;4.45;;;;;;;4.28;78.21;100532.88;5102439;27;20118;-75
2023/02/01 07:48:45;;;;;;;8.40;4.30;;;;;;;4.35;78.29;100537.75;5078927;28;20139;-75
2023/02/01 07:51:16;;;;;;;7.35;4.55;;;;;;;4.30;79.05;100531.88;5099740;28;20337;-77
2023/02/01 07:53:42;;;;;;;7.75;4.72;;;;;;;4.35;78.85;100516.50;5079528;28;20483;-74
2023/02/01 07:56:19;;;;;;;9.10;4.93;;;;;;;4.56;78.21;100535.63;5096492;28;20031;-74
2023/02/01 07:58:52;;;;;;;9.57;5.20;;;;;;;4.64;77.58;100534.22;5101855;28;20020;-74
2023/02/01 08:01:20;;;;;;;10.93;5.07;;;;;;;4.87;76.81;100556.72;5097522;28;20077;-74
2023/02/01 08:03:53;;;;;;;8.07;4.85;;;;;;;4.86;76.50;100543.56;5100356;28;20486;-74
2023/02/01 08:06:19;;;;;;;7.97;4.30;;;;;;;4.81;76.61;100550.94;5080658;28;20563;-75
2023/02/01 08:08:46;;;;;;;7.72;5.30;;;;;;;4.94;76.27;100544.78;5081055;28;20035;-75
2023/02/01 08:11:13;;;;;;;7.53;4.13;;;;;;;4.95;76.10;100543.84;5077456;28;20039;-73
2023/02/01 08:13:39;;;;;;;9.80;4.47;;;;;;;5.13;75.27;100539.19;5102966;28;20051;-73
2023/02/01 08:16:07;;;;;;;8.70;4.07;;;;;;;5.19;75.26;100539.66;5096032;28;20047;-74
2023/02/01 08:18:33;;;;;;;7.22;4.15;;;;;;;5.31;74.93;100538.03;5099387;28;20450;-74
2023/02/01 08:21:04;;;;;;;7.95;4.45;;;;;;;5.19;75.37;100542.31;5096522;28;20031;-74
2023/02/01 08:23:29;;;;;;;10.95;7.13;;;;;;;5.47;74.25;100536.09;5098972;28;20035;-74
2023/02/01 08:26:09;;;;;;;9.52;3.72;;;;;;;5.55;73.85;100544.47;5093247;28;20403;-74
2023/02/01 08:28:35;;;;;;;7.18;4.15;;;;;;;5.57;73.55;100530.13;5103469;28;20031;-74
2023/02/01 08:31:05;;;;;;;8.00;4.43;;;;;;;5.64;73.37;100531.41;5082435;28;20080;-75
2023/02/01 08:33:30;;;;;;;6.68;3.78;;;;;;;5.57;73.42;100535.44;5103893;28;20027;-75
2023/02/01 08:35:55;;;;;;;6.63;3.67;;;;;;;5.61;73.92;100533.44;5086469;28;20084;-75
2023/02/01 08:38:21;;;;;;;9.43;4.18;;;;;;;5.71;73.78;100519.44;5101923;28;20475;-74
2023/02/01 08:40:46;;;;;;;7.70;4.03;;;;;;;5.61;73.50;100499.69;5080265;28;20023;-68
2023/02/01 08:43:12;;;;;;;9.63;3.97;;;;;;;5.80;73.84;100534.81;5102129;28;20032;-68
2023/02/01 08:45:39;;;;;;;12.98;4.03;;;;;;;5.95;73.30;100517.88;5098714;28;20031;-68
2023/02/01 08:48:05;;;;;;;5.70;3.78;;;;;;;6.04;73.01;100527.94;5085191;28;20498;-68
2023/02/01 08:50:30;;;;;;;5.28;3.30;;;;;;;6.11;72.61;100531.03;5075794;28;20028;-67
2023/02/01 08:52:55;;;;;;;9.05;3.95;;;;;;;6.18;72.80;100541.19;5079195;28;20051;-68
2023/02/01 08:55:21;;;;;;;7.72;4.25;;;;;;;6.32;72.00;100551.75;5093808;28;20066;-68
2023/02/01 08:57:47;;;;;;;5.90;3.50;;;;;;;6.31;70.84;100546.53;5080436;28;20027;-68
2023/02/01 09:00:15;;;;;;;4.82;3.83;;;;;;;6.45;70.16;100555.31;5097537;28;20036;-68
2023/02/01 09:02:40;;;;;;;4.63;3.40;;;;;;;6.40;70.52;100538.78;5093909;28;20058;-68
2023/02/01 09:05:06;;;;;;;6.78;3.63;;;;;;;6.51;70.53;100552.22;5102473;28;20020;-68
2023/02/01 09:07:33;;;;;;;5.85;3.17;;;;;;;6.64;71.17;100581.56;5082108;28;20467;-68
2023/02/01 09:10:00;;;;;;;6.32;3.53;;;;;;;6.61;69.53;100541.81;5079403;28;20035;-67
2023/02/01 09:12:30;;;;;;;6.20;3.33;;;;;;;6.90;69.06;100576.16;5103945;28;20043;-68
2023/02/01 09:14:56;;;;;;;7.20;3.45;;;;;;;7.04;68.03;100592.06;5103653;28;20030;-68
2023/02/01 09:17:22;;;;;;;5.97;3.00;;;;;;;7.03;67.62;100597.50;5084737;28;20147;-68
2023/02/01 09:19:48;;;;;;;5.78;3.15;;;;;;;6.92;67.07;100568.06;5079241;28;20487;-68
2023/02/01 09:22:15;;;;;;;7.45;3.20;;;;;;;7.20;67.72;100588.34;5095185;28;20031;-68
2023/02/01 09:24:41;;;;;;;5.88;3.20;;;;;;;7.03;67.52;100565.50;5100485;28;20424;-68
2023/02/01 09:27:06;;;;;;;6.75;3.00;;;;;;;7.11;67.13;100539.16;5091785;28;20024;-68
2023/02/01 09:29:32;;;;;;;6.28;3.40;;;;;;;7.20;67.05;100554.53;5097078;28;20023;-68
2023/02/01 09:31:57;;;;;;;5.53;3.10;;;;;;;7.25;67.08;100524.88;5093526;28;20038;-68
2023/02/01 09:34:23;;;;;;;4.50;2.97;;;;;;;7.36;66.61;100528.47;5096848;28;20072;-68
2023/02/01 09:36:49;;;;;;;7.13;3.10;;;;;;;7.48;65.82;100516.06;5099682;28;20102;-68
2023/02/01 09:39:14;;;;;;;6.63;3.20;;;;;;;7.67;65.36;100535.97;5097283;28;20083;-69
2023/02/01 09:41:59;;;;;;;6.32;2.83;;;;;;;7.76;64.13;100505.94;5100321;28;20023;-68
2023/02/01 09:45:06;;;;;;;4.13;2.88;;;;;;;7.85;64.25;100526.63;5100667;28;20467;-68
2023/02/01 09:47:32;;;;;;;8.57;3.80;;;;;;;8.07;64.18;100531.25;5077620;28;20499;-68
2023/02/01 09:50:03;;;;;;;5.85;3.05;;;;;;;8.31;62.09;100510.72;5092714;28;20076;-68
2023/02/01 09:52:44;;;;;;;6.45;3.40;;;;;;;8.26;61.28;100511.06;5101434;28;20024;-68
2023/02/01 09:55:18;;;;;;;5.20;2.75;;;;;;;8.15;61.29;100473.59;5075722;28;20442;-69
2023/02/01 09:57:49;;;;;;;;;;;;;;;8.51;61.53;100520.75;5081580;28;20038;-69
2023/02/01 10:00:21;;;;;;;4.43;2.55;;;;;;;8.60;60.92;100520.06;5080714;28;20430;-69
2023/02/01 10:02:47;;;;;;;4.32;2.40;;;;;;;8.62;60.43;100510.09;5082495;28;20077;-68
2023/02/01 10:05:39;;;;;;;5.82;2.15;;;;;;;8.66;59.62;100495.53;5083255;28;20035;-69
2023/02/01 10:08:26;;;;;;;6.00;2.92;;;;;;;8.66;59.01;100488.38;5078394;28;20032;-69
2023/02/01 10:10:55;;;;;;;4.70;2.10;;;;;;;8.53;59.08;100500.13;5074178;28;20063;-69
2023/02/01 10:13:26;;;;;;;6.97;3.15;;;;;;;8.57;59.69;100510.47;5099599;28;20071;-68
2023/02/01 10:16:07;;;;;;;8.02;2.78;;;;;;;8.35;58.79;100485.50;5077634;28;20039;-69
2023/02/01 10:19:06;;;;;;;10.50;3.33;;;;;;;8.45;60.44;100511.38;5081386;28;20033;-68
2023/02/01 10:21:46;;;;;;;4.05;2.40;;;;;;;8.40;60.65;100513.56;5093480;28;20035;-69
2023/02/01 10:24:22;;;;;;;9.63;2.08;;;;;;;8.24;61.24;100493.47;5079001;28;20024;-69
2023/02/01 10:27:08;;;;;;;3.38;2.25;;;;;;;8.21;61.51;100501.66;5083457;28;20023;-69
2023/02/01 10:29:37;;;;;;;6.68;3.80;;;;;;;7.94;62.39;100493.91;5080266;28;20019;-68
2023/02/01 10:32:11;;;;;;;10.63;5.00;;;;;;;8.17;63.05;100526.91;5096855;28;20053;-68
2023/02/01 10:34:37;;;;;;;9.55;4.35;;;;;;;7.94;63.09;100483.25;5075941;28;20281;-69
2023/02/01 10:37:26;;;;;;;9.82;3.80;;;;;;;7.85;63.48;100496.41;5080297;28;20471;-69
2023/02/01 10:39:57;;;;;;;4.10;2.60;;;;;;;7.97;63.78;100514.19;5099182;28;20073;-69
2023/02/01 10:42:30;;;;;;;9.32;3.15;;;;;;;7.95;63.90;100500.09;5094773;28;20089;-69
2023/02/01 10:44:59;;;;;;;6.47;3.60;;;;;;;7.78;64.70;100488.00;5082473;28;20030;-69
2023/02/01 10:47:25;;;;;;;7.28;3.95;;;;;;;7.88;65.95;100501.50;5094798;28;20043;-69
2023/02/01 10:50:01;;;;;;;5.63;3.65;;;;;;;7.96;65.83;100493.81;5085204;28;20391;-69
2023/02/01 10:52:41;;;;;;;7.13;3.75;;;;;;;7.97;65.67;100474.97;5095813;28;20106;-70
2023/02/01 10:55:39;;;;;;;6.05;3.58;;;;;;;8.20;65.23;100483.94;5100829;28;20083;-69
2023/02/01 10:58:20;;;;;;;8.27;4.32;;;;;;;8.12;65.79;100460.47;5072068;28;20050;-69
2023/02/01 11:00:53;;;;;;;9.98;4.38;;;;;;;8.25;65.56;100461.28;5102201;28;20501;-69
2023/02/01 11:03:38;;;;;;;6.75;3.67;;;;;;;8.19;65.63;100431.50;5081265;28;20048;-69
2023/02/01 11:06:18;;;;;;;6.18;3.35;;;;;;;8.24;65.73;100440.03;5075971;28;20027;-69
2023/02/01 11:08:55;;;;;;;5.95;3.30;;;;;;;8.36;65.76;100426.59;5095915;28;20114;-68
2023/02/01 11:11:22;;;;;;;6.07;2.78;;;;;;;8.34;65.75;100404.47;5081224;28;20024;-68
2023/02/01 11:13:57;;;;;;;5.97;3.20;;;;;;;8.28;65.44;100388.03;5102526;28;20055;-68
2023/02/01 11:16:39;;;;;;;5.68;3.05;;;;;;;8.23;65.92;100380.41;5086086;28;20462;-69
2023/02/01 11:19:05;;;;;;;6.45;3.80;;;;;;;8.38;65.22;100408.59;5080794;28;20027;-69
2023/02/01 11:21:31;;;;;;;6.93;3.72;;;;;;;8.33;65.21;100399.25;5080379;28;20028;-68
2023/02/01 11:24:02;;;;;;;3.15;2.33;;;;;;;8.33;65.50;100409.94;5101145;28;20055;-69
2023/02/01 11:26:28;;;;;;;4.82;3.03;;;;;;;8.34;65.27;100403.59;5084660;28;20031;-69
2023/02/01 11:28:59;;;;;;;6.75;3.40;;;;;;;8.61;64.88;100418.34;5102179;28;20032;-68
2023/02/01 11:31:27;;;;;;;5.38;2.80;;;;;;;8.40;65.23;100365.72;5105766;28;20402;-69
2023/02/01 11:33:58;;;;;;;3.90;2.65;;;;;;;8.92;63.91;100414.97;5107244;28;20036;-68
2023/02/01 11:36:28;;;;;;;4.07;2.47;;;;;;;8.83;63.79;100398.78;5087078;28;20468;-68
2023/02/01 11:39:12;;;;;;;4.35;2.78;;;;;;;8.99;63.51;100415.31;5084551;28;20464;-68
2023/02/01 11:41:54;;;;;;;4.88;3.45;;;;;;;8.89;63.82;100403.66;5084653;28;20023;-68
2023/02/01 11:44:40;;;;;;;4.18;3.00;;;;;;;8.85;63.99;100407.56;5102089;28;20031;-69
2023/02/01 11:47:24;;;;;;;4.82;2.90;;;;;;;8.97;63.78;100403.91;5084111;28;20019;-74
2023/02/01 11:50:01;;;;;;;4.32;2.75;;;;;;;8.83;63.40;100386.28;5107304;28;20444;-74
2023/02/01 11:52:53;;;;;;;5.38;3.25;;;;;;;8.78;63.38;100395.66;5090215;28;20027;-75
2023/02/01 11:55:53;;;;;;;6.60;3.22;;;;;;;8.81;64.24;100398.91;5108553;28;20027;-74
2023/02/01 11:58:37;;;;;;;5.65;3.42;;;;;;;8.73;63.95;100368.41;5089176;28;20027;-74
2023/02/01 12:01:02;;;;;;;6.72;2.90;;;;;;;8.69;64.23;100369.63;5089931;28;20043;-75
2023/02/01 12:04:03;;;;;;;4.18;2.78;;;;;;;8.69;63.72;100361.59;5097049;28;20090;-75
2023/02/01 12:06:33;;;;;;;9.57;3.78;;;;;;;8.61;64.25;100351.53;5101953;28;20030;-74
2023/02/01 12:09:01;;;;;;;5.22;3.15;;;;;;;8.66;64.45;100348.47;5085397;28;20058;-74
2023/02/01 12:11:29;;;;;;;7.80;4.18;;;;;;;8.67;64.96;100342.16;5084259;28;20063;-75